This is the latest recevied weather packets stored in our database for station/object LRBC. If no packets are shown the sender has not sent any weather packets the latest 10 day(s).
| Time | Temp. | Humidity | Pressure | Rain* | Wind** | Luminosity | Snow |
|---|---|---|---|---|---|---|---|
| 1778056427 | 21.11° C | 46% | 1014 hPa | - | - | - | - |
| 1778055524 | 20° C | 49% | 1014 hPa | - | - | - | - |
| 1778054628 | 20° C | 49% | 1014 hPa | - | - | - | - |
| 1778052828 | 17.78° C | 56% | 1014 hPa | - | - | - | - |
| 1778051927 | 17.22° C | 59% | 1014 hPa | - | - | - | - |
| 1778051027 | 17.22° C | 59% | 1014 hPa | - | - | - | - |
| 1778050127 | 15° C | 63% | 1014 hPa | - | - | - | - |
| 1778049227 | 15° C | 63% | 1014 hPa | - | - | - | - |
| 1778048328 | 13.89° C | 63% | 1014 hPa | - | - | - | - |
| 1778047429 | 13.89° C | 63% | 1014 hPa | - | - | - | - |
| 1778046529 | 12.78° C | 67% | 1014 hPa | - | - | - | - |
| 1778045636 | 12.78° C | 67% | 1014 hPa | - | - | - | - |
| 1778044728 | 12.22° C | 67% | 1014 hPa | - | - | - | - |
| 1778043841 | 12.22° C | 67% | 1014 hPa | - | - | - | - |
| 1778042943 | 10° C | 76% | 1014 hPa | - | - | - | - |
| 1778042031 | 10° C | 76% | 1014 hPa | - | - | - | - |
| 1778041128 | 8.89° C | 82% | 1014 hPa | - | - | - | - |
| 1778040227 | 8.89° C | 82% | 1014 hPa | - | - | - | - |
| 1778039328 | 7.78° C | 87% | 1014 hPa | - | - | - | - |
| 1778038427 | 7.78° C | 87% | 1014 hPa | - | - | - | - |
| 1778037527 | 7.78° C | 82% | 1014 hPa | - | - | - | - |
| 1778036627 | 7.78° C | 82% | 1014 hPa | - | - | - | - |
| 1778035727 | 7.78° C | 82% | 1014 hPa | - | - | - | - |
| 1778034827 | 7.78° C | 82% | 1014 hPa | - | - | - | - |
| 1778033925 | 7.78° C | 82% | 1014 hPa | - | - | - | - |
* Rain since midnight (hover to see other rain measurements)
** Current wind speed in m/s (hover to see current wind gust speed)